sensor_id;sensor_type;location;lat;lon;timestamp;P1;durP1;ratioP1;P2;durP2;ratioP2
50010;SDS011;35899;50.352;19.390;2022-08-19T00:00:36;13.22;;;11.90;;
50010;SDS011;35899;50.352;19.390;2022-08-19T00:03:06;12.98;;;11.05;;
50010;SDS011;35899;50.352;19.390;2022-08-19T00:05:33;13.28;;;11.97;;
50010;SDS011;35899;50.352;19.390;2022-08-19T00:08:01;13.30;;;11.40;;
50010;SDS011;35899;50.352;19.390;2022-08-19T00:10:29;13.00;;;11.80;;
50010;SDS011;35899;50.352;19.390;2022-08-19T00:12:56;13.50;;;12.10;;
50010;SDS011;35899;50.352;19.390;2022-08-19T00:15:23;13.43;;;12.03;;
50010;SDS011;35899;50.352;19.390;2022-08-19T00:17:50;14.33;;;11.70;;
50010;SDS011;35899;50.352;19.390;2022-08-19T00:20:19;13.35;;;11.93;;
50010;SDS011;35899;50.352;19.390;2022-08-19T00:22:48;14.03;;;12.20;;
50010;SDS011;35899;50.352;19.390;2022-08-19T00:25:16;15.18;;;12.25;;
50010;SDS011;35899;50.352;19.390;2022-08-19T00:27:44;13.53;;;12.15;;
50010;SDS011;35899;50.352;19.390;2022-08-19T00:30:11;13.35;;;11.70;;
50010;SDS011;35899;50.352;19.390;2022-08-19T00:32:39;15.08;;;12.10;;
50010;SDS011;35899;50.352;19.390;2022-08-19T00:35:07;13.38;;;12.00;;
50010;SDS011;35899;50.352;19.390;2022-08-19T00:37:35;13.20;;;11.80;;
50010;SDS011;35899;50.352;19.390;2022-08-19T00:40:04;15.35;;;12.28;;
50010;SDS011;35899;50.352;19.390;2022-08-19T00:42:32;12.82;;;11.43;;
50010;SDS011;35899;50.352;19.390;2022-08-19T00:44:59;13.32;;;11.90;;
50010;SDS011;35899;50.352;19.390;2022-08-19T00:47:26;14.03;;;11.90;;
50010;SDS011;35899;50.352;19.390;2022-08-19T00:49:55;13.08;;;11.83;;
50010;SDS011;35899;50.352;19.390;2022-08-19T00:52:28;14.18;;;12.73;;
50010;SDS011;35899;50.352;19.390;2022-08-19T00:55:02;13.83;;;12.43;;
50010;SDS011;35899;50.352;19.390;2022-08-19T00:57:34;13.90;;;12.28;;
50010;SDS011;35899;50.352;19.390;2022-08-19T01:00:06;14.05;;;12.65;;
50010;SDS011;35899;50.352;19.390;2022-08-19T01:02:38;16.20;;;12.37;;
50010;SDS011;35899;50.352;19.390;2022-08-19T01:05:06;15.65;;;12.43;;
50010;SDS011;35899;50.352;19.390;2022-08-19T01:07:38;13.70;;;12.40;;
50010;SDS011;35899;50.352;19.390;2022-08-19T01:10:09;13.45;;;12.15;;
50010;SDS011;35899;50.352;19.390;2022-08-19T01:12:42;14.28;;;12.37;;
50010;SDS011;35899;50.352;19.390;2022-08-19T01:15:10;13.68;;;12.37;;
50010;SDS011;35899;50.352;19.390;2022-08-19T01:17:41;13.93;;;12.45;;
50010;SDS011;35899;50.352;19.390;2022-08-19T01:20:10;14.00;;;12.20;;
50010;SDS011;35899;50.352;19.390;2022-08-19T01:22:46;14.50;;;12.63;;
50010;SDS011;35899;50.352;19.390;2022-08-19T01:25:14;14.15;;;12.80;;
50010;SDS011;35899;50.352;19.390;2022-08-19T01:27:45;14.40;;;12.85;;
50010;SDS011;35899;50.352;19.390;2022-08-19T01:30:16;14.47;;;12.95;;
50010;SDS011;35899;50.352;19.390;2022-08-19T01:32:47;14.98;;;12.28;;
50010;SDS011;35899;50.352;19.390;2022-08-19T01:35:16;14.53;;;13.13;;
50010;SDS011;35899;50.352;19.390;2022-08-19T01:37:45;14.60;;;13.05;;
50010;SDS011;35899;50.352;19.390;2022-08-19T01:40:16;15.00;;;12.63;;
50010;SDS011;35899;50.352;19.390;2022-08-19T01:42:47;14.33;;;12.85;;
50010;SDS011;35899;50.352;19.390;2022-08-19T01:45:17;16.60;;;12.78;;
50010;SDS011;35899;50.352;19.390;2022-08-19T01:47:47;14.60;;;13.10;;
50010;SDS011;35899;50.352;19.390;2022-08-19T01:50:14;14.83;;;13.28;;
50010;SDS011;35899;50.352;19.390;2022-08-19T01:52:42;16.07;;;13.38;;
50010;SDS011;35899;50.352;19.390;2022-08-19T01:55:13;15.50;;;13.28;;
50010;SDS011;35899;50.352;19.390;2022-08-19T01:57:43;16.07;;;13.78;;
50010;SDS011;35899;50.352;19.390;2022-08-19T02:02:54;13.85;;;12.47;;
50010;SDS011;35899;50.352;19.390;2022-08-19T02:05:21;15.30;;;13.70;;
50010;SDS011;35899;50.352;19.390;2022-08-19T02:07:48;15.58;;;13.08;;
50010;SDS011;35899;50.352;19.390;2022-08-19T02:10:17;17.62;;;13.28;;
50010;SDS011;35899;50.352;19.390;2022-08-19T02:12:47;14.28;;;12.65;;
50010;SDS011;35899;50.352;19.390;2022-08-19T02:15:15;15.72;;;13.50;;
50010;SDS011;35899;50.352;19.390;2022-08-19T02:17:46;14.70;;;13.20;;
50010;SDS011;35899;50.352;19.390;2022-08-19T02:20:13;15.00;;;13.40;;
50010;SDS011;35899;50.352;19.390;2022-08-19T02:22:41;15.63;;;13.93;;
50010;SDS011;35899;50.352;19.390;2022-08-19T02:25:10;15.30;;;13.80;;
50010;SDS011;35899;50.352;19.390;2022-08-19T02:27:39;14.90;;;13.40;;
50010;SDS011;35899;50.352;19.390;2022-08-19T02:30:09;16.95;;;13.43;;
50010;SDS011;35899;50.352;19.390;2022-08-19T02:32:42;15.40;;;13.55;;
50010;SDS011;35899;50.352;19.390;2022-08-19T02:35:10;15.65;;;13.72;;
50010;SDS011;35899;50.352;19.390;2022-08-19T02:37:39;18.50;;;13.83;;
50010;SDS011;35899;50.352;19.390;2022-08-19T02:40:29;14.13;;;12.65;;
50010;SDS011;35899;50.352;19.390;2022-08-19T02:43:00;16.73;;;13.53;;
50010;SDS011;35899;50.352;19.390;2022-08-19T02:45:32;17.42;;;13.93;;
50010;SDS011;35899;50.352;19.390;2022-08-19T02:48:01;15.20;;;13.62;;
50010;SDS011;35899;50.352;19.390;2022-08-19T02:50:30;14.90;;;13.50;;
50010;SDS011;35899;50.352;19.390;2022-08-19T02:52:58;14.50;;;13.03;;
50010;SDS011;35899;50.352;19.390;2022-08-19T02:55:25;14.78;;;13.18;;
50010;SDS011;35899;50.352;19.390;2022-08-19T02:57:52;14.63;;;13.08;;
50010;SDS011;35899;50.352;19.390;2022-08-19T03:00:19;16.40;;;14.05;;
50010;SDS011;35899;50.352;19.390;2022-08-19T03:02:46;15.68;;;14.05;;
50010;SDS011;35899;50.352;19.390;2022-08-19T03:05:14;15.80;;;14.20;;
50010;SDS011;35899;50.352;19.390;2022-08-19T03:07:42;15.58;;;13.88;;
50010;SDS011;35899;50.352;19.390;2022-08-19T03:10:09;17.42;;;14.95;;
50010;SDS011;35899;50.352;19.390;2022-08-19T03:12:37;15.63;;;13.98;;
50010;SDS011;35899;50.352;19.390;2022-08-19T03:15:06;17.12;;;13.90;;
50010;SDS011;35899;50.352;19.390;2022-08-19T03:17:34;15.90;;;14.20;;
50010;SDS011;35899;50.352;19.390;2022-08-19T03:20:02;17.45;;;14.70;;
50010;SDS011;35899;50.352;19.390;2022-08-19T03:22:31;15.08;;;13.60;;
50010;SDS011;35899;50.352;19.390;2022-08-19T03:24:58;15.08;;;13.58;;
50010;SDS011;35899;50.352;19.390;2022-08-19T03:27:25;15.40;;;13.80;;
50010;SDS011;35899;50.352;19.390;2022-08-19T03:29:52;15.70;;;13.83;;
50010;SDS011;35899;50.352;19.390;2022-08-19T03:32:19;15.43;;;13.85;;
50010;SDS011;35899;50.352;19.390;2022-08-19T03:34:47;14.75;;;13.25;;
50010;SDS011;35899;50.352;19.390;2022-08-19T03:37:15;16.05;;;13.58;;
50010;SDS011;35899;50.352;19.390;2022-08-19T03:39:42;14.95;;;13.35;;
50010;SDS011;35899;50.352;19.390;2022-08-19T03:42:09;16.62;;;12.60;;
50010;SDS011;35899;50.352;19.390;2022-08-19T03:44:36;14.68;;;13.18;;
50010;SDS011;35899;50.352;19.390;2022-08-19T03:47:04;14.90;;;13.22;;
50010;SDS011;35899;50.352;19.390;2022-08-19T03:49:32;15.23;;;13.62;;
50010;SDS011;35899;50.352;19.390;2022-08-19T03:52:01;17.37;;;14.05;;
50010;SDS011;35899;50.352;19.390;2022-08-19T03:54:31;15.18;;;13.62;;
50010;SDS011;35899;50.352;19.390;2022-08-19T03:56:58;15.15;;;13.55;;
50010;SDS011;35899;50.352;19.390;2022-08-19T03:59:26;15.20;;;13.10;;
50010;SDS011;35899;50.352;19.390;2022-08-19T04:01:57;14.25;;;12.53;;
50010;SDS011;35899;50.352;19.390;2022-08-19T04:04:27;15.23;;;13.70;;
50010;SDS011;35899;50.352;19.390;2022-08-19T04:06:55;14.87;;;13.25;;
50010;SDS011;35899;50.352;19.390;2022-08-19T04:09:22;14.70;;;13.20;;
50010;SDS011;35899;50.352;19.390;2022-08-19T04:11:50;15.63;;;13.75;;
50010;SDS011;35899;50.352;19.390;2022-08-19T04:14:22;13.93;;;12.55;;
50010;SDS011;35899;50.352;19.390;2022-08-19T04:16:51;13.15;;;11.85;;
50010;SDS011;35899;50.352;19.390;2022-08-19T04:19:19;14.18;;;12.60;;
50010;SDS011;35899;50.352;19.390;2022-08-19T04:21:48;15.40;;;13.48;;
50010;SDS011;35899;50.352;19.390;2022-08-19T04:24:18;14.25;;;12.85;;
50010;SDS011;35899;50.352;19.390;2022-08-19T04:26:47;15.20;;;12.82;;
50010;SDS011;35899;50.352;19.390;2022-08-19T04:29:17;14.53;;;12.98;;
50010;SDS011;35899;50.352;19.390;2022-08-19T04:31:47;13.98;;;12.58;;
50010;SDS011;35899;50.352;19.390;2022-08-19T04:34:16;15.45;;;13.10;;
50010;SDS011;35899;50.352;19.390;2022-08-19T04:36:49;13.60;;;12.30;;
50010;SDS011;35899;50.352;19.390;2022-08-19T04:39:21;14.75;;;13.35;;
50010;SDS011;35899;50.352;19.390;2022-08-19T04:41:56;14.30;;;12.82;;
50010;SDS011;35899;50.352;19.390;2022-08-19T04:44:41;14.30;;;12.82;;
50010;SDS011;35899;50.352;19.390;2022-08-19T04:47:08;15.20;;;13.18;;
50010;SDS011;35899;50.352;19.390;2022-08-19T04:49:35;13.53;;;12.13;;
50010;SDS011;35899;50.352;19.390;2022-08-19T04:52:02;14.35;;;12.85;;
50010;SDS011;35899;50.352;19.390;2022-08-19T04:54:29;13.80;;;12.40;;
50010;SDS011;35899;50.352;19.390;2022-08-19T04:56:56;13.65;;;12.23;;
50010;SDS011;35899;50.352;19.390;2022-08-19T04:59:23;15.10;;;12.43;;
50010;SDS011;35899;50.352;19.390;2022-08-19T05:01:51;14.85;;;13.30;;
50010;SDS011;35899;50.352;19.390;2022-08-19T05:04:18;13.98;;;12.55;;
50010;SDS011;35899;50.352;19.390;2022-08-19T05:06:46;13.72;;;12.33;;
50010;SDS011;35899;50.352;19.390;2022-08-19T05:09:15;13.43;;;12.07;;
50010;SDS011;35899;50.352;19.390;2022-08-19T05:11:43;12.95;;;11.70;;
50010;SDS011;35899;50.352;19.390;2022-08-19T05:14:10;13.05;;;11.55;;
50010;SDS011;35899;50.352;19.390;2022-08-19T05:16:39;13.85;;;11.78;;
50010;SDS011;35899;50.352;19.390;2022-08-19T05:19:06;13.90;;;12.35;;
50010;SDS011;35899;50.352;19.390;2022-08-19T05:21:53;13.90;;;11.35;;
50010;SDS011;35899;50.352;19.390;2022-08-19T05:24:38;13.50;;;12.15;;
50010;SDS011;35899;50.352;19.390;2022-08-19T05:27:06;12.65;;;10.65;;
50010;SDS011;35899;50.352;19.390;2022-08-19T05:29:33;13.28;;;11.93;;
50010;SDS011;35899;50.352;19.390;2022-08-19T05:32:01;12.75;;;11.45;;
50010;SDS011;35899;50.352;19.390;2022-08-19T05:34:35;12.23;;;11.05;;
50010;SDS011;35899;50.352;19.390;2022-08-19T05:37:04;12.40;;;11.18;;
50010;SDS011;35899;50.352;19.390;2022-08-19T05:39:34;11.80;;;10.75;;
50010;SDS011;35899;50.352;19.390;2022-08-19T05:42:07;12.20;;;11.03;;
50010;SDS011;35899;50.352;19.390;2022-08-19T05:44:39;11.95;;;10.70;;
50010;SDS011;35899;50.352;19.390;2022-08-19T05:47:12;12.18;;;10.55;;
50010;SDS011;35899;50.352;19.390;2022-08-19T05:49:40;10.98;;;9.85;;
50010;SDS011;35899;50.352;19.390;2022-08-19T05:52:09;12.20;;;10.90;;
50010;SDS011;35899;50.352;19.390;2022-08-19T05:54:39;11.03;;;9.98;;
50010;SDS011;35899;50.352;19.390;2022-08-19T05:57:08;11.57;;;10.08;;
50010;SDS011;35899;50.352;19.390;2022-08-19T05:59:36;11.40;;;10.20;;
50010;SDS011;35899;50.352;19.390;2022-08-19T06:02:04;10.90;;;9.93;;
50010;SDS011;35899;50.352;19.390;2022-08-19T06:04:32;11.38;;;10.20;;
50010;SDS011;35899;50.352;19.390;2022-08-19T06:07:00;11.80;;;10.13;;
50010;SDS011;35899;50.352;19.390;2022-08-19T06:09:29;11.33;;;9.93;;
50010;SDS011;35899;50.352;19.390;2022-08-19T06:11:57;11.97;;;9.90;;
50010;SDS011;35899;50.352;19.390;2022-08-19T06:14:27;11.63;;;10.53;;
50010;SDS011;35899;50.352;19.390;2022-08-19T06:16:57;12.05;;;10.45;;
50010;SDS011;35899;50.352;19.390;2022-08-19T06:19:27;11.68;;;10.50;;
50010;SDS011;35899;50.352;19.390;2022-08-19T06:21:56;10.58;;;9.63;;
50010;SDS011;35899;50.352;19.390;2022-08-19T06:24:26;12.03;;;10.35;;
50010;SDS011;35899;50.352;19.390;2022-08-19T06:26:55;11.68;;;10.30;;
50010;SDS011;35899;50.352;19.390;2022-08-19T06:29:25;13.13;;;10.15;;
50010;SDS011;35899;50.352;19.390;2022-08-19T06:31:54;11.15;;;10.10;;
50010;SDS011;35899;50.352;19.390;2022-08-19T06:34:23;11.50;;;9.48;;
50010;SDS011;35899;50.352;19.390;2022-08-19T06:36:53;11.65;;;9.43;;
50010;SDS011;35899;50.352;19.390;2022-08-19T06:41:55;11.40;;;9.55;;
50010;SDS011;35899;50.352;19.390;2022-08-19T06:44:28;10.18;;;9.20;;
50010;SDS011;35899;50.352;19.390;2022-08-19T06:49:33;10.40;;;9.15;;
50010;SDS011;35899;50.352;19.390;2022-08-19T06:52:01;10.08;;;8.58;;
50010;SDS011;35899;50.352;19.390;2022-08-19T06:54:29;10.58;;;9.23;;
50010;SDS011;35899;50.352;19.390;2022-08-19T06:56:59;11.75;;;9.18;;
50010;SDS011;35899;50.352;19.390;2022-08-19T06:59:28;10.48;;;9.20;;
50010;SDS011;35899;50.352;19.390;2022-08-19T07:01:59;11.20;;;9.10;;
50010;SDS011;35899;50.352;19.390;2022-08-19T07:04:32;9.38;;;8.20;;
50010;SDS011;35899;50.352;19.390;2022-08-19T07:07:02;11.50;;;8.33;;
50010;SDS011;35899;50.352;19.390;2022-08-19T07:09:36;11.12;;;8.75;;
50010;SDS011;35899;50.352;19.390;2022-08-19T07:12:06;9.78;;;8.78;;
50010;SDS011;35899;50.352;19.390;2022-08-19T07:14:36;8.93;;;8.13;;
50010;SDS011;35899;50.352;19.390;2022-08-19T07:17:06;10.10;;;8.50;;
50010;SDS011;35899;50.352;19.390;2022-08-19T07:19:36;11.97;;;8.38;;
50010;SDS011;35899;50.352;19.390;2022-08-19T07:22:06;10.90;;;8.88;;
50010;SDS011;35899;50.352;19.390;2022-08-19T07:24:35;13.70;;;8.73;;
50010;SDS011;35899;50.352;19.390;2022-08-19T07:27:04;9.20;;;8.25;;
50010;SDS011;35899;50.352;19.390;2022-08-19T07:29:33;10.88;;;8.13;;
50010;SDS011;35899;50.352;19.390;2022-08-19T07:32:02;10.43;;;7.83;;
50010;SDS011;35899;50.352;19.390;2022-08-19T07:34:31;7.80;;;7.10;;
50010;SDS011;35899;50.352;19.390;2022-08-19T07:37:02;9.05;;;7.55;;
50010;SDS011;35899;50.352;19.390;2022-08-19T07:39:33;8.38;;;7.05;;
50010;SDS011;35899;50.352;19.390;2022-08-19T07:42:03;7.08;;;6.47;;
50010;SDS011;35899;50.352;19.390;2022-08-19T07:44:33;7.70;;;7.00;;
50010;SDS011;35899;50.352;19.390;2022-08-19T07:47:01;7.92;;;7.10;;
50010;SDS011;35899;50.352;19.390;2022-08-19T07:49:30;7.08;;;6.37;;
50010;SDS011;35899;50.352;19.390;2022-08-19T07:52:02;6.85;;;6.20;;
50010;SDS011;35899;50.352;19.390;2022-08-19T07:54:34;9.03;;;6.05;;
50010;SDS011;35899;50.352;19.390;2022-08-19T07:57:03;6.60;;;5.90;;
50010;SDS011;35899;50.352;19.390;2022-08-19T07:59:30;8.08;;;5.97;;
50010;SDS011;35899;50.352;19.390;2022-08-19T08:01:58;5.92;;;5.42;;
50010;SDS011;35899;50.352;19.390;2022-08-19T08:04:26;8.50;;;5.83;;
50010;SDS011;35899;50.352;19.390;2022-08-19T08:07:15;7.75;;;5.33;;
50010;SDS011;35899;50.352;19.390;2022-08-19T08:10:00;7.40;;;5.25;;
50010;SDS011;35899;50.352;19.390;2022-08-19T08:17:32;6.50;;;5.05;;
50010;SDS011;35899;50.352;19.390;2022-08-19T08:19:59;6.40;;;4.97;;
50010;SDS011;35899;50.352;19.390;2022-08-19T08:22:27;6.03;;;5.17;;
50010;SDS011;35899;50.352;19.390;2022-08-19T08:25:14;5.50;;;4.92;;
50010;SDS011;35899;50.352;19.390;2022-08-19T08:30:17;7.95;;;4.58;;
50010;SDS011;35899;50.352;19.390;2022-08-19T08:32:43;5.67;;;4.87;;
50010;SDS011;35899;50.352;19.390;2022-08-19T08:35:12;7.78;;;4.87;;
50010;SDS011;35899;50.352;19.390;2022-08-19T08:37:42;5.08;;;4.58;;
50010;SDS011;35899;50.352;19.390;2022-08-19T08:43:08;8.00;;;4.30;;
50010;SDS011;35899;50.352;19.390;2022-08-19T08:54:47;5.83;;;4.30;;
50010;SDS011;35899;50.352;19.390;2022-08-19T08:57:20;6.67;;;4.78;;
50010;SDS011;35899;50.352;19.390;2022-08-19T08:59:56;5.10;;;4.58;;
50010;SDS011;35899;50.352;19.390;2022-08-19T09:02:26;9.08;;;4.60;;
50010;SDS011;35899;50.352;19.390;2022-08-19T09:04:54;6.05;;;4.25;;
50010;SDS011;35899;50.352;19.390;2022-08-19T09:10:33;5.45;;;4.35;;
50010;SDS011;35899;50.352;19.390;2022-08-19T09:21:21;5.60;;;4.37;;
50010;SDS011;35899;50.352;19.390;2022-08-19T09:23:49;4.97;;;3.75;;
50010;SDS011;35899;50.352;19.390;2022-08-19T09:26:17;9.80;;;4.17;;
50010;SDS011;35899;50.352;19.390;2022-08-19T09:28:48;7.67;;;4.73;;
50010;SDS011;35899;50.352;19.390;2022-08-19T09:31:19;5.75;;;4.25;;
50010;SDS011;35899;50.352;19.390;2022-08-19T09:33:49;6.65;;;4.37;;
50010;SDS011;35899;50.352;19.390;2022-08-19T09:36:19;5.35;;;4.58;;
50010;SDS011;35899;50.352;19.390;2022-08-19T09:38:50;7.72;;;4.65;;
50010;SDS011;35899;50.352;19.390;2022-08-19T09:41:20;7.95;;;4.12;;
50010;SDS011;35899;50.352;19.390;2022-08-19T09:43:50;5.33;;;4.70;;
50010;SDS011;35899;50.352;19.390;2022-08-19T09:46:21;6.35;;;4.60;;
50010;SDS011;35899;50.352;19.390;2022-08-19T09:48:52;7.45;;;4.20;;
50010;SDS011;35899;50.352;19.390;2022-08-19T09:51:21;8.10;;;4.47;;
50010;SDS011;35899;50.352;19.390;2022-08-19T09:53:51;6.42;;;3.90;;
50010;SDS011;35899;50.352;19.390;2022-08-19T09:56:22;7.17;;;4.25;;
50010;SDS011;35899;50.352;19.390;2022-08-19T09:58:50;4.92;;;4.35;;
50010;SDS011;35899;50.352;19.390;2022-08-19T10:01:18;9.35;;;4.30;;
50010;SDS011;35899;50.352;19.390;2022-08-19T10:06:19;4.15;;;3.75;;
50010;SDS011;35899;50.352;19.390;2022-08-19T10:08:49;5.67;;;4.37;;
50010;SDS011;35899;50.352;19.390;2022-08-19T10:11:18;5.58;;;4.50;;
50010;SDS011;35899;50.352;19.390;2022-08-19T10:13:46;6.17;;;4.22;;
50010;SDS011;35899;50.352;19.390;2022-08-19T10:16:16;7.90;;;4.08;;
50010;SDS011;35899;50.352;19.390;2022-08-19T10:18:47;6.55;;;3.98;;
50010;SDS011;35899;50.352;19.390;2022-08-19T10:23:50;5.20;;;3.70;;
50010;SDS011;35899;50.352;19.390;2022-08-19T10:26:21;6.87;;;4.05;;
50010;SDS011;35899;50.352;19.390;2022-08-19T10:28:51;6.03;;;3.67;;
50010;SDS011;35899;50.352;19.390;2022-08-19T10:31:20;5.83;;;3.47;;
50010;SDS011;35899;50.352;19.390;2022-08-19T10:33:52;7.62;;;3.80;;
50010;SDS011;35899;50.352;19.390;2022-08-19T10:36:22;6.47;;;3.55;;
50010;SDS011;35899;50.352;19.390;2022-08-19T10:38:54;6.17;;;4.15;;
50010;SDS011;35899;50.352;19.390;2022-08-19T10:41:26;5.65;;;3.30;;
50010;SDS011;35899;50.352;19.390;2022-08-19T10:44:02;8.35;;;3.70;;
50010;SDS011;35899;50.352;19.390;2022-08-19T10:46:31;9.55;;;4.00;;
50010;SDS011;35899;50.352;19.390;2022-08-19T10:49:01;7.47;;;3.77;;
50010;SDS011;35899;50.352;19.390;2022-08-19T10:51:31;7.10;;;3.30;;
50010;SDS011;35899;50.352;19.390;2022-08-19T10:54:17;4.78;;;3.30;;
50010;SDS011;35899;50.352;19.390;2022-08-19T10:56:44;5.97;;;3.52;;
50010;SDS011;35899;50.352;19.390;2022-08-19T11:01:53;5.70;;;3.85;;
50010;SDS011;35899;50.352;19.390;2022-08-19T11:04:26;7.10;;;3.92;;
50010;SDS011;35899;50.352;19.390;2022-08-19T11:06:54;8.50;;;3.80;;
50010;SDS011;35899;50.352;19.390;2022-08-19T11:09:23;11.78;;;3.92;;
50010;SDS011;35899;50.352;19.390;2022-08-19T11:11:53;5.43;;;3.70;;
50010;SDS011;35899;50.352;19.390;2022-08-19T11:14:20;6.70;;;3.80;;
50010;SDS011;35899;50.352;19.390;2022-08-19T11:16:48;7.10;;;3.60;;
50010;SDS011;35899;50.352;19.390;2022-08-19T11:19:17;7.25;;;3.92;;
50010;SDS011;35899;50.352;19.390;2022-08-19T11:21:47;6.07;;;3.63;;
50010;SDS011;35899;50.352;19.390;2022-08-19T11:26:50;6.78;;;3.42;;
50010;SDS011;35899;50.352;19.390;2022-08-19T11:29:22;8.70;;;3.47;;
50010;SDS011;35899;50.352;19.390;2022-08-19T11:31:50;4.45;;;3.47;;
50010;SDS011;35899;50.352;19.390;2022-08-19T11:34:20;7.00;;;3.50;;
50010;SDS011;35899;50.352;19.390;2022-08-19T11:39:18;4.25;;;3.40;;
50010;SDS011;35899;50.352;19.390;2022-08-19T11:41:47;4.70;;;3.77;;
50010;SDS011;35899;50.352;19.390;2022-08-19T11:44:14;6.65;;;3.40;;
50010;SDS011;35899;50.352;19.390;2022-08-19T11:46:42;6.05;;;3.02;;
50010;SDS011;35899;50.352;19.390;2022-08-19T11:49:14;7.85;;;3.33;;
50010;SDS011;35899;50.352;19.390;2022-08-19T11:51:44;6.92;;;3.25;;
50010;SDS011;35899;50.352;19.390;2022-08-19T11:54:15;9.63;;;3.95;;
50010;SDS011;35899;50.352;19.390;2022-08-19T11:56:43;5.67;;;2.90;;
50010;SDS011;35899;50.352;19.390;2022-08-19T11:59:12;9.08;;;3.33;;
50010;SDS011;35899;50.352;19.390;2022-08-19T12:01:39;5.45;;;2.85;;
50010;SDS011;35899;50.352;19.390;2022-08-19T12:04:08;5.85;;;2.77;;
50010;SDS011;35899;50.352;19.390;2022-08-19T12:06:37;5.85;;;3.05;;
50010;SDS011;35899;50.352;19.390;2022-08-19T12:09:05;7.85;;;2.80;;
50010;SDS011;35899;50.352;19.390;2022-08-19T12:11:36;4.95;;;2.87;;
50010;SDS011;35899;50.352;19.390;2022-08-19T12:14:04;5.83;;;3.00;;
50010;SDS011;35899;50.352;19.390;2022-08-19T12:16:32;5.90;;;3.12;;
50010;SDS011;35899;50.352;19.390;2022-08-19T12:19:00;10.18;;;3.33;;
50010;SDS011;35899;50.352;19.390;2022-08-19T12:21:30;8.45;;;2.90;;
50010;SDS011;35899;50.352;19.390;2022-08-19T12:26:29;6.25;;;2.92;;
50010;SDS011;35899;50.352;19.390;2022-08-19T12:28:57;7.75;;;3.08;;
50010;SDS011;35899;50.352;19.390;2022-08-19T12:31:26;7.47;;;3.27;;
50010;SDS011;35899;50.352;19.390;2022-08-19T12:33:55;3.92;;;3.00;;
50010;SDS011;35899;50.352;19.390;2022-08-19T12:36:22;9.00;;;3.30;;
50010;SDS011;35899;50.352;19.390;2022-08-19T12:38:50;4.22;;;3.12;;
50010;SDS011;35899;50.352;19.390;2022-08-19T12:41:18;8.63;;;3.22;;
50010;SDS011;35899;50.352;19.390;2022-08-19T12:43:48;7.75;;;3.00;;
50010;SDS011;35899;50.352;19.390;2022-08-19T12:46:16;6.80;;;3.08;;
50010;SDS011;35899;50.352;19.390;2022-08-19T12:48:45;7.67;;;3.27;;
50010;SDS011;35899;50.352;19.390;2022-08-19T12:51:14;10.23;;;3.35;;
50010;SDS011;35899;50.352;19.390;2022-08-19T12:53:46;8.10;;;3.50;;
50010;SDS011;35899;50.352;19.390;2022-08-19T12:56:14;6.97;;;3.47;;
50010;SDS011;35899;50.352;19.390;2022-08-19T12:58:43;6.33;;;3.40;;
50010;SDS011;35899;50.352;19.390;2022-08-19T13:01:10;5.42;;;3.10;;
50010;SDS011;35899;50.352;19.390;2022-08-19T13:03:41;8.48;;;3.05;;
50010;SDS011;35899;50.352;19.390;2022-08-19T13:06:11;6.95;;;3.30;;
50010;SDS011;35899;50.352;19.390;2022-08-19T13:08:39;7.47;;;3.42;;
50010;SDS011;35899;50.352;19.390;2022-08-19T13:11:10;10.48;;;3.33;;
50010;SDS011;35899;50.352;19.390;2022-08-19T13:13:41;5.20;;;2.58;;
50010;SDS011;35899;50.352;19.390;2022-08-19T13:16:10;7.97;;;3.45;;
50010;SDS011;35899;50.352;19.390;2022-08-19T13:18:40;7.58;;;3.17;;
50010;SDS011;35899;50.352;19.390;2022-08-19T13:21:08;7.28;;;3.08;;
50010;SDS011;35899;50.352;19.390;2022-08-19T13:23:40;9.38;;;2.90;;
50010;SDS011;35899;50.352;19.390;2022-08-19T13:26:08;10.20;;;3.20;;
50010;SDS011;35899;50.352;19.390;2022-08-19T13:28:38;6.60;;;3.13;;
50010;SDS011;35899;50.352;19.390;2022-08-19T13:31:25;6.30;;;2.83;;
50010;SDS011;35899;50.352;19.390;2022-08-19T13:34:13;6.50;;;2.95;;
50010;SDS011;35899;50.352;19.390;2022-08-19T13:36:42;4.62;;;3.08;;
50010;SDS011;35899;50.352;19.390;2022-08-19T13:39:09;7.95;;;2.98;;
50010;SDS011;35899;50.352;19.390;2022-08-19T13:41:37;5.20;;;3.42;;
50010;SDS011;35899;50.352;19.390;2022-08-19T13:44:08;6.12;;;3.10;;
50010;SDS011;35899;50.352;19.390;2022-08-19T13:46:35;8.28;;;3.20;;
50010;SDS011;35899;50.352;19.390;2022-08-19T13:49:02;8.58;;;3.12;;
50010;SDS011;35899;50.352;19.390;2022-08-19T13:51:30;4.97;;;3.15;;
50010;SDS011;35899;50.352;19.390;2022-08-19T13:53:57;11.48;;;3.37;;
50010;SDS011;35899;50.352;19.390;2022-08-19T13:56:24;5.78;;;3.52;;
50010;SDS011;35899;50.352;19.390;2022-08-19T13:58:51;7.15;;;3.52;;
50010;SDS011;35899;50.352;19.390;2022-08-19T14:01:22;6.53;;;3.33;;
50010;SDS011;35899;50.352;19.390;2022-08-19T14:03:50;6.25;;;3.30;;
50010;SDS011;35899;50.352;19.390;2022-08-19T14:06:18;7.03;;;3.70;;
50010;SDS011;35899;50.352;19.390;2022-08-19T14:08:45;9.20;;;3.50;;
50010;SDS011;35899;50.352;19.390;2022-08-19T14:11:13;6.85;;;3.47;;
50010;SDS011;35899;50.352;19.390;2022-08-19T14:13:41;9.08;;;3.60;;
50010;SDS011;35899;50.352;19.390;2022-08-19T14:16:10;5.17;;;3.47;;
50010;SDS011;35899;50.352;19.390;2022-08-19T14:18:40;6.65;;;3.85;;
50010;SDS011;35899;50.352;19.390;2022-08-19T14:21:08;5.95;;;3.80;;
50010;SDS011;35899;50.352;19.390;2022-08-19T14:23:49;8.70;;;4.08;;
50010;SDS011;35899;50.352;19.390;2022-08-19T14:26:17;7.25;;;3.90;;
50010;SDS011;35899;50.352;19.390;2022-08-19T14:28:46;9.90;;;3.67;;
50010;SDS011;35899;50.352;19.390;2022-08-19T14:31:14;9.33;;;4.37;;
50010;SDS011;35899;50.352;19.390;2022-08-19T14:36:12;9.80;;;4.22;;
50010;SDS011;35899;50.352;19.390;2022-08-19T14:38:39;7.95;;;4.35;;
50010;SDS011;35899;50.352;19.390;2022-08-19T14:41:17;10.48;;;4.10;;
50010;SDS011;35899;50.352;19.390;2022-08-19T14:43:48;8.65;;;4.78;;
50010;SDS011;35899;50.352;19.390;2022-08-19T14:46:19;10.58;;;4.58;;
50010;SDS011;35899;50.352;19.390;2022-08-19T14:48:48;7.40;;;4.55;;
50010;SDS011;35899;50.352;19.390;2022-08-19T14:51:16;9.53;;;4.70;;
50010;SDS011;35899;50.352;19.390;2022-08-19T14:53:45;9.05;;;4.70;;
50010;SDS011;35899;50.352;19.390;2022-08-19T14:56:15;8.63;;;4.50;;
50010;SDS011;35899;50.352;19.390;2022-08-19T14:58:46;11.38;;;3.95;;
50010;SDS011;35899;50.352;19.390;2022-08-19T15:01:13;6.03;;;3.87;;
50010;SDS011;35899;50.352;19.390;2022-08-19T15:03:40;7.28;;;3.65;;
50010;SDS011;35899;50.352;19.390;2022-08-19T15:06:07;11.88;;;4.12;;
50010;SDS011;35899;50.352;19.390;2022-08-19T15:08:36;7.17;;;3.72;;
50010;SDS011;35899;50.352;19.390;2022-08-19T15:11:09;9.60;;;4.03;;
50010;SDS011;35899;50.352;19.390;2022-08-19T15:13:40;8.23;;;4.15;;
50010;SDS011;35899;50.352;19.390;2022-08-19T15:16:08;12.82;;;4.00;;
50010;SDS011;35899;50.352;19.390;2022-08-19T15:18:36;7.47;;;3.95;;
50010;SDS011;35899;50.352;19.390;2022-08-19T15:21:03;6.92;;;3.62;;
50010;SDS011;35899;50.352;19.390;2022-08-19T15:23:31;6.30;;;3.65;;
50010;SDS011;35899;50.352;19.390;2022-08-19T15:25:58;5.80;;;3.50;;
50010;SDS011;35899;50.352;19.390;2022-08-19T15:28:25;8.38;;;3.70;;
50010;SDS011;35899;50.352;19.390;2022-08-19T15:30:52;7.03;;;3.52;;